OJAM/ADJ METAR and TAF weather

Enter ICAO airport designator
Station Type Date Time Source
OJAM METAR 2019/04/25 16:00 UTC NOAA

OJAM 251600Z 31007KT 5000 HZ NSC 21/05 Q1021 NOSIG


Station Type Date Time Source
OJAM Decoded METAR 2019/04/25 16:00 UTC NOAA

Amman Airport, Jordan (OJAM) 31-59N 035-59E 768M
Apr 25, 2019 - 12:00 PM EDT / 2019.04.25 1600 UTC
Wind: from the NW (310 degrees) at 8 MPH (7 KT):0
Visibility: 3 mile(s):0
Weather: haze
Temperature: 69 F (21 C)
Dew Point: 41 F (5 C)
Relative Humidity: 35%
Pressure (altimeter): 30.15 in. Hg (1021 hPa)
ob: OJAM 251600Z 31007KT 5000 HZ NSC 21/05 Q1021 NOSIG
cycle: 16

Station Type Date Time Source
OJAM TAF 2019/04/25 12:15 UTC NOAA

TAF OJAM 251007Z 2512/2618 08008KT 5000 HZ NSC
BECMG 2518/2520 VRB02KT 6000

Example: see airport list